Morrin, Canada
Current Conditions -  °F | °C
As of 2:00 PM on Sunday 21 Dec 2014 (Local Time) from CYQF Reporting Station
Broken Clouds Broken Clouds  
Wind Chill: 24°   Ceiling: 15000
Heat Index: 30°   Visibility: 15mi
Dew Point: 25°   Wind: 6mph
Humidity: 80%   Direction: 270°W
Pressure: 29.41"   Gusts: NA
Location:  51.67°N, 112.77°W
Report Text: CYQF 212100Z 27005KT 220V300 15SM FEW090 BKN150 BKN230 M01/M04 A2941 RMK AC2AC3CI2 SLP002
Loading
Personal Weather Stations






























Interactive Weather Map New forecast layout! Learn more

10-Day Weather Forecast

Advertisements
Track Severe Weather on mobile